createdAt,value
2023-04-04T00:04:42.073Z,-1.28
2023-04-04T00:14:49.323Z,-1.47
2023-04-04T00:24:57.346Z,-1.69
2023-04-04T00:35:04.438Z,-1.90
2023-04-04T00:45:09.342Z,-2.00
2023-04-04T00:55:16.868Z,-2.01
2023-04-04T01:05:24.148Z,-2.03
2023-04-04T01:15:32.066Z,-2.08
2023-04-04T01:25:39.970Z,-2.17
2023-04-04T01:35:53.873Z,-2.28
2023-04-04T01:46:00.189Z,-2.36
2023-04-04T01:56:07.098Z,-2.40
2023-04-04T02:06:14.592Z,-2.40
2023-04-04T02:16:21.876Z,-2.37
2023-04-04T02:26:29.108Z,-2.39
2023-04-04T02:36:36.492Z,-2.54
2023-04-04T02:46:43.500Z,-2.65
2023-04-04T02:56:50.718Z,-2.74
2023-04-04T03:06:58.059Z,-2.76
2023-04-04T03:17:05.232Z,-2.78
2023-04-04T03:27:12.147Z,-2.69
2023-04-04T03:37:19.073Z,-2.62
2023-04-04T03:47:26.902Z,-2.65
2023-04-04T03:57:34.761Z,-2.76
2023-04-04T04:07:43.940Z,-2.91
2023-04-04T04:17:50.954Z,-2.98
2023-04-04T04:27:57.998Z,-2.97
2023-04-04T04:38:05.112Z,-2.94
2023-04-04T04:48:13.257Z,-2.69
2023-04-04T04:58:20.116Z,-2.42
2023-04-04T05:08:31.119Z,-1.81
2023-04-04T05:18:38.922Z,-0.96
2023-04-04T05:28:46.123Z,0.05
2023-04-04T05:38:52.873Z,0.83
2023-04-04T05:49:00.155Z,1.75
2023-04-04T05:59:07.795Z,2.44
2023-04-04T06:09:14.997Z,2.68
2023-04-04T06:19:22.213Z,3.20
2023-04-04T06:29:29.252Z,3.42
2023-04-04T06:39:36.795Z,2.88
2023-04-04T06:49:43.997Z,3.25
2023-04-04T06:59:51.464Z,3.75
2023-04-04T07:09:58.496Z,3.66
2023-04-04T07:20:05.115Z,3.31
2023-04-04T07:30:13.019Z,2.34
2023-04-04T07:40:20.241Z,2.39
2023-04-04T07:50:26.622Z,2.41
2023-04-04T08:00:34.384Z,2.39
2023-04-04T08:10:40.844Z,2.36
2023-04-04T08:20:48.592Z,2.05
2023-04-04T08:30:54.610Z,2.22
2023-04-04T08:41:00.149Z,2.21
2023-04-04T08:51:09.502Z,2.02
2023-04-04T09:01:16.614Z,2.06
2023-04-04T09:11:24.723Z,2.22
2023-04-04T09:21:36.195Z,2.30
2023-04-04T09:31:46.851Z,2.55
2023-04-04T09:41:56.046Z,2.30
2023-04-04T09:52:03.264Z,2.28
2023-04-04T10:02:09.125Z,2.24
2023-04-04T10:12:17.548Z,2.39
2023-04-04T10:22:25.939Z,2.29
2023-04-04T10:32:32.790Z,2.26
2023-04-04T10:42:39.067Z,2.23
2023-04-04T10:52:47.480Z,2.11
2023-04-04T11:02:58.196Z,2.07
2023-04-04T11:13:12.326Z,1.98
2023-04-04T11:23:21.224Z,1.86
2023-04-04T11:33:33.766Z,1.81
2023-04-04T11:43:45.603Z,2.01
2023-04-04T11:53:52.878Z,2.50
2023-04-04T12:04:01.556Z,2.83
2023-04-04T12:14:07.969Z,2.89
2023-04-04T12:24:16.058Z,2.74
2023-04-04T12:34:22.104Z,2.46
2023-04-04T12:44:26.998Z,2.28
2023-04-04T12:54:36.668Z,2.23
2023-04-04T13:04:46.809Z,2.20
2023-04-04T13:15:03.157Z,2.21
2023-04-04T13:25:10.378Z,2.26
2023-04-04T13:35:17.511Z,2.27
2023-04-04T13:45:24.846Z,2.38
2023-04-04T13:55:31.042Z,2.27
2023-04-04T14:05:38.587Z,2.12
2023-04-04T14:15:45.732Z,2.06
2023-04-04T14:25:52.875Z,2.21
2023-04-04T14:35:59.941Z,2.06
2023-04-04T14:46:07.555Z,2.08
2023-04-04T14:56:15.073Z,2.18
2023-04-04T15:06:22.272Z,1.95
2023-04-04T15:16:33.210Z,1.70
2023-04-04T15:26:40.974Z,1.53
2023-04-04T15:36:50.286Z,1.24
2023-04-04T15:46:58.082Z,1.21
2023-04-04T15:57:04.511Z,1.02
2023-04-04T16:07:12.088Z,0.86
2023-04-04T16:17:19.198Z,0.88
2023-04-04T16:27:26.137Z,0.80
2023-04-04T16:37:33.988Z,0.61
2023-04-04T16:47:41.650Z,0.60
2023-04-04T16:57:49.781Z,0.46
2023-04-04T17:07:57.120Z,0.25
2023-04-04T17:18:04.377Z,0.01
2023-04-04T17:28:11.619Z,-0.24
2023-04-04T17:38:17.348Z,-0.51
2023-04-04T17:48:26.138Z,-0.76
2023-04-04T17:58:33.209Z,-1.03
2023-04-04T18:08:40.465Z,-1.24
2023-04-04T18:18:45.299Z,-1.41
2023-04-04T18:28:52.338Z,-1.56
2023-04-04T18:39:01.254Z,-1.69
2023-04-04T18:49:08.727Z,-1.85
2023-04-04T18:59:15.240Z,-2.01
2023-04-04T19:09:21.825Z,-2.11
2023-04-04T19:19:29.354Z,-2.20
2023-04-04T19:29:37.822Z,-2.25
2023-04-04T19:39:45.286Z,-2.25
2023-04-04T19:49:51.441Z,-2.34
2023-04-04T20:00:13.635Z,-2.52
2023-04-04T20:10:36.556Z,-2.68
2023-04-04T20:20:47.793Z,-2.89
2023-04-04T20:30:55.720Z,-3.02
2023-04-04T20:41:03.464Z,-3.13
2023-04-04T20:51:27.262Z,-3.25
2023-04-04T21:01:34.378Z,-3.35
2023-04-04T21:11:43.694Z,-3.36
2023-04-04T21:21:51.591Z,-3.27
2023-04-04T21:32:00.236Z,-3.18
2023-04-04T21:42:09.167Z,-3.16
2023-04-04T21:52:16.339Z,-3.21
2023-04-04T22:02:23.319Z,-3.34
2023-04-04T22:22:53.864Z,-3.51
2023-04-04T22:33:01.080Z,-3.46
2023-04-04T22:43:08.311Z,-3.34
2023-04-04T22:53:15.217Z,-3.19
2023-04-04T23:13:28.387Z,-3.09
2023-04-04T23:23:36.755Z,-3.19
2023-04-04T23:33:43.862Z,-3.27
2023-04-04T23:43:50.957Z,-3.30
2023-04-04T23:53:57.254Z,-3.18
